Time;durP1;ratioP1;P1;durP2;ratioP2;P2;SDS_P1;SDS_P2;PMS_P1;PMS_P2;Temp;Humidity;BMP_temperature;BMP_pressure;BME280_temperature;BME280_humidity;BME280_pressure;Samples;Min_cycle;Max_cycle;Signal;HPM_P1;HPM_P2
2023/12/24 00:00:43;;;;;;;0.40;0.40;;;9.10;1.00;;;;;;5166505;28;20041;-32
2023/12/24 00:03:14;;;;;;;0.57;0.57;;;9.10;1.00;;;;;;5226100;28;20028;-32
2023/12/24 00:05:49;;;;;;;0.50;0.50;;;9.10;1.00;;;;;;5212479;28;21114;-32
2023/12/24 00:08:20;;;;;;;0.70;0.70;;;9.20;1.00;;;;;;5213711;28;20352;-33
2023/12/24 00:10:55;;;;;;;1.27;0.50;;;9.10;1.00;;;;;;5201954;28;20040;-33
2023/12/24 00:13:26;;;;;;;0.70;0.70;;;9.20;1.00;;;;;;5220908;28;20029;-32
2023/12/24 00:16:00;;;;;;;0.50;0.50;;;9.10;1.00;;;;;;5203012;28;20051;-33
2023/12/24 00:18:34;;;;;;;0.60;0.60;;;9.10;1.00;;;;;;5218100;28;20031;-32
2023/12/24 00:21:05;;;;;;;0.83;0.83;;;9.10;1.00;;;;;;5207991;28;20041;-31
2023/12/24 00:23:38;;;;;;;0.50;0.50;;;9.20;1.00;;;;;;5227661;28;20024;-32
2023/12/24 00:26:10;;;;;;;0.60;0.60;;;9.30;1.00;;;;;;5202849;28;20037;-32
2023/12/24 00:28:41;;;;;;;0.73;0.73;;;9.40;1.00;;;;;;5205692;28;20041;-32
2023/12/24 00:31:12;;;;;;;0.50;0.50;;;9.40;1.00;;;;;;5217773;28;20044;-32
2023/12/24 00:33:43;;;;;;;0.50;0.50;;;9.40;1.00;;;;;;5186193;28;20579;-32
2023/12/24 00:36:17;;;;;;;0.63;0.63;;;9.40;1.00;;;;;;5196997;28;20022;-32
2023/12/24 00:38:53;;;;;;;0.60;0.60;;;9.30;1.00;;;;;;5205893;28;20025;-31
2023/12/24 00:41:30;;;;;;;0.55;0.55;;;9.30;1.00;;;;;;5198958;28;20283;-31
2023/12/24 00:44:04;;;;;;;0.60;0.60;;;9.30;1.00;;;;;;5221146;28;20041;-31
2023/12/24 00:46:40;;;;;;;0.55;0.55;;;9.20;1.00;;;;;;5221286;28;20328;-32
2023/12/24 00:49:14;;;;;;;0.80;0.80;;;9.10;1.00;;;;;;5213966;28;20045;-32
2023/12/24 00:51:45;;;;;;;0.60;0.60;;;9.00;1.00;;;;;;5187496;28;20028;-32
2023/12/24 00:54:17;;;;;;;0.80;0.80;;;8.90;1.00;;;;;;5195993;28;20233;-31
2023/12/24 00:56:50;;;;;;;1.38;0.75;;;8.70;1.00;;;;;;5204730;28;20033;-31
2023/12/24 00:59:24;;;;;;;3.60;0.83;;;8.60;1.00;;;;;;5217155;28;20028;-31
2023/12/24 01:01:57;;;;;;;0.75;0.75;;;8.50;1.00;;;;;;5218480;28;20033;-34
2023/12/24 01:04:30;;;;;;;0.80;0.80;;;8.50;1.00;;;;;;5203396;28;20034;-32
2023/12/24 01:07:04;;;;;;;0.50;0.50;;;8.50;1.00;;;;;;5187249;28;20072;-32
2023/12/24 01:09:39;;;;;;;0.80;0.80;;;8.30;1.00;;;;;;5182423;28;20033;-33
2023/12/24 01:12:12;;;;;;;0.85;0.82;;;8.20;48.10;;;;;;5187216;28;20040;-37
2023/12/24 01:14:45;;;;;;;0.60;0.60;;;8.20;86.60;;;;;;5209937;28;20253;-35
2023/12/24 01:17:17;;;;;;;0.57;0.57;;;8.10;99.90;;;;;;5225426;28;20394;-33
2023/12/24 01:19:48;;;;;;;1.15;0.70;;;8.10;99.90;;;;;;5205625;28;20343;-33
2023/12/24 01:22:22;;;;;;;0.70;0.70;;;8.00;99.90;;;;;;5210100;28;20249;-32
2023/12/24 01:24:55;;;;;;;1.17;0.98;;;8.10;99.90;;;;;;5219151;28;20047;-38
2023/12/24 01:27:29;;;;;;;0.83;0.83;;;8.10;99.90;;;;;;5215589;28;20062;-32
2023/12/24 01:30:00;;;;;;;0.90;0.90;;;8.20;99.90;;;;;;5198798;28;20203;-31
2023/12/24 01:32:34;;;;;;;0.77;0.70;;;8.20;99.90;;;;;;5208229;28;20036;-32
2023/12/24 01:35:06;;;;;;;0.60;0.60;;;8.10;99.90;;;;;;5216123;28;20030;-32
2023/12/24 01:37:37;;;;;;;0.80;0.80;;;8.10;99.90;;;;;;5222148;28;20033;-32
2023/12/24 01:40:08;;;;;;;1.70;0.70;;;8.20;99.90;;;;;;5224596;28;20033;-31
2023/12/24 01:42:45;;;;;;;0.60;0.60;;;8.30;99.90;;;;;;5224666;28;20083;-32
2023/12/24 01:45:19;;;;;;;0.60;0.60;;;8.20;99.90;;;;;;5220503;28;20229;-31
2023/12/24 01:47:51;;;;;;;;;;;8.20;99.90;;;;;;5190491;28;20043;-31
2023/12/24 01:50:22;;;;;;;0.60;0.60;;;8.20;99.90;;;;;;5218448;28;19927;-31
2023/12/24 01:52:54;;;;;;;1.52;0.70;;;8.20;99.90;;;;;;5225186;28;20035;-30
2023/12/24 01:55:25;;;;;;;0.70;0.70;;;8.20;99.90;;;;;;5200201;28;20025;-30
2023/12/24 01:57:56;;;;;;;0.50;0.50;;;8.10;99.90;;;;;;5207219;28;20466;-45
2023/12/24 02:00:28;;;;;;;0.70;0.70;;;8.20;99.90;;;;;;5220854;28;20032;-46
2023/12/24 02:03:04;;;;;;;0.80;0.60;;;8.20;99.90;;;;;;5205358;28;20748;-43
2023/12/24 02:05:36;;;;;;;0.70;0.70;;;8.30;99.90;;;;;;5188065;28;20029;-42
2023/12/24 02:08:10;;;;;;;0.85;0.70;;;8.20;99.90;;;;;;5185897;28;20344;-40
2023/12/24 02:10:47;;;;;;;0.80;0.80;;;8.20;99.90;;;;;;5184981;28;20043;-37
2023/12/24 02:13:19;;;;;;;0.95;0.70;;;8.30;99.90;;;;;;5211517;28;20036;-35
2023/12/24 02:15:55;;;;;;;0.60;0.60;;;8.30;99.90;;;;;;5221017;28;20031;-31
2023/12/24 02:18:29;;;;;;;0.80;0.80;;;8.40;99.90;;;;;;5176251;28;20029;-31
2023/12/24 02:21:04;;;;;;;1.40;0.90;;;8.50;99.90;;;;;;5183657;28;20047;-31
2023/12/24 02:23:36;;;;;;;0.52;0.52;;;8.40;99.90;;;;;;5190860;28;20033;-30
2023/12/24 02:26:23;;;;;;;0.70;0.70;;;8.60;95.00;;;;;;5205051;28;20056;-32
2023/12/24 02:29:03;;;;;;;0.70;0.70;;;8.60;29.80;;;;;;5214299;28;20036;-31
2023/12/24 02:31:38;;;;;;;0.73;0.73;;;8.70;46.80;;;;;;5214699;28;20025;-30
2023/12/24 02:34:13;;;;;;;1.67;0.80;;;8.80;1.00;;;;;;5222064;28;20031;-35
2023/12/24 02:36:47;;;;;;;0.63;0.63;;;8.80;1.00;;;;;;5216169;28;20310;-31
2023/12/24 02:39:20;;;;;;;0.98;0.90;;;9.00;1.00;;;;;;5194117;28;20029;-31
2023/12/24 02:41:54;;;;;;;2.07;0.90;;;9.10;1.00;;;;;;5207946;28;20039;-31
2023/12/24 02:44:25;;;;;;;1.10;1.10;;;9.10;1.00;;;;;;5209441;28;20051;-32
2023/12/24 02:46:59;;;;;;;0.88;0.88;;;9.10;1.00;;;;;;5206040;28;20045;-31
2023/12/24 02:49:36;;;;;;;0.80;0.80;;;9.20;1.00;;;;;;5193086;28;20072;-30
2023/12/24 02:52:09;;;;;;;0.52;0.52;;;9.20;1.00;;;;;;5182171;28;20063;-32
2023/12/24 02:54:46;;;;;;;0.60;0.60;;;9.10;1.00;;;;;;5224318;28;20040;-30
2023/12/24 02:57:17;;;;;;;0.70;0.70;;;9.10;1.00;;;;;;5195318;28;20043;-30
2023/12/24 02:59:51;;;;;;;3.25;0.80;;;9.10;1.00;;;;;;5184270;28;20025;-30
2023/12/24 03:02:24;;;;;;;1.13;1.02;;;9.00;1.00;;;;;;5186305;28;20043;-32
2023/12/24 03:04:56;;;;;;;0.98;0.98;;;9.10;1.00;;;;;;5187444;28;20029;-30
2023/12/24 03:07:30;;;;;;;0.65;0.65;;;9.20;1.00;;;;;;5227022;28;20217;-34
2023/12/24 03:10:04;;;;;;;0.80;0.80;;;9.20;1.00;;;;;;5226542;28;20037;-30
2023/12/24 03:12:36;;;;;;;0.70;0.70;;;9.20;1.00;;;;;;5223353;28;20039;-32
2023/12/24 03:15:09;;;;;;;0.77;0.77;;;9.20;1.00;;;;;;5223259;28;20209;-30
2023/12/24 03:17:48;;;;;;;1.00;0.90;;;9.30;1.00;;;;;;5201220;28;20028;-31
2023/12/24 03:20:21;;;;;;;0.60;0.60;;;9.30;1.00;;;;;;5189496;28;20329;-31
2023/12/24 03:22:52;;;;;;;0.70;0.70;;;9.30;1.00;;;;;;5180986;28;20034;-31
2023/12/24 03:25:29;;;;;;;1.35;0.90;;;9.20;1.00;;;;;;5181490;28;20040;-31
2023/12/24 03:28:02;;;;;;;0.60;0.60;;;9.30;1.00;;;;;;5185703;28;20040;-31
2023/12/24 03:30:39;;;;;;;0.70;0.70;;;9.20;1.00;;;;;;5184672;28;20036;-32
2023/12/24 03:33:11;;;;;;;0.70;0.70;;;9.20;1.00;;;;;;5226818;28;20065;-31
2023/12/24 03:35:47;;;;;;;0.90;0.90;;;9.20;1.00;;;;;;5209234;28;20252;-31
2023/12/24 03:38:21;;;;;;;1.02;1.02;;;9.30;1.00;;;;;;5223655;28;20025;-31
2023/12/24 03:40:52;;;;;;;1.02;1.00;;;9.30;1.00;;;;;;5226883;28;20190;-32
2023/12/24 03:43:25;;;;;;;0.70;0.70;;;9.30;1.00;;;;;;5208095;28;20036;-32
2023/12/24 03:45:58;;;;;;;0.88;0.88;;;9.30;1.00;;;;;;5210244;28;20040;-31
2023/12/24 03:48:31;;;;;;;0.70;0.70;;;9.20;1.00;;;;;;5220691;28;20082;-31
2023/12/24 03:51:07;;;;;;;0.50;0.50;;;9.30;1.00;;;;;;5201651;28;20242;-30
2023/12/24 03:53:43;;;;;;;0.60;0.60;;;9.40;1.00;;;;;;5195764;28;20025;-31
2023/12/24 03:56:18;;;;;;;0.80;0.80;;;9.30;1.00;;;;;;5195243;28;20032;-31
2023/12/24 03:58:53;;;;;;;0.52;0.52;;;9.30;1.00;;;;;;5189448;28;20279;-30
2023/12/24 04:01:31;;;;;;;0.80;0.75;;;9.30;1.00;;;;;;5192914;28;20244;-31
2023/12/24 04:04:02;;;;;;;0.68;0.68;;;9.30;1.00;;;;;;5218995;28;20055;-31
2023/12/24 04:06:39;;;;;;;0.80;0.80;;;9.30;1.00;;;;;;5208913;28;20040;-31
2023/12/24 04:09:15;;;;;;;0.73;0.73;;;9.20;1.00;;;;;;5206676;28;20037;-31
2023/12/24 04:11:51;;;;;;;0.90;0.90;;;9.20;1.00;;;;;;5223181;28;20029;-31
2023/12/24 04:14:22;;;;;;;0.63;0.63;;;9.10;1.00;;;;;;5218519;28;20028;-31
2023/12/24 04:16:53;;;;;;;0.65;0.65;;;9.20;1.00;;;;;;5200611;28;20033;-31
2023/12/24 04:19:25;;;;;;;0.80;0.80;;;9.20;1.00;;;;;;5214074;28;20032;-31
2023/12/24 04:22:00;;;;;;;0.60;0.60;;;9.30;1.00;;;;;;5218075;28;20104;-31
2023/12/24 04:24:32;;;;;;;0.50;0.50;;;9.40;1.00;;;;;;5197206;28;20032;-32
2023/12/24 04:27:03;;;;;;;0.70;0.70;;;9.30;1.00;;;;;;5212930;28;20033;-31
2023/12/24 04:29:34;;;;;;;0.50;0.50;;;9.20;1.00;;;;;;5216367;28;20043;-31
2023/12/24 04:32:06;;;;;;;0.93;0.88;;;9.20;1.00;;;;;;5213831;28;20029;-31
2023/12/24 04:34:37;;;;;;;0.50;0.50;;;9.20;1.00;;;;;;5215188;28;20221;-31
2023/12/24 04:37:09;;;;;;;0.88;0.88;;;9.20;1.00;;;;;;5173172;28;20040;-31
2023/12/24 04:39:40;;;;;;;0.80;0.80;;;9.30;1.00;;;;;;5194467;28;20036;-35
2023/12/24 04:42:12;;;;;;;0.80;0.80;;;9.30;1.00;;;;;;5180387;28;20037;-32
2023/12/24 04:44:43;;;;;;;0.77;0.70;;;9.30;1.00;;;;;;5196729;28;20040;-32
2023/12/24 04:47:17;;;;;;;0.70;0.70;;;9.20;1.00;;;;;;5214794;28;20274;-32
2023/12/24 04:49:49;;;;;;;0.60;0.60;;;9.30;1.00;;;;;;5195048;28;20029;-32
2023/12/24 04:52:25;;;;;;;0.80;0.80;;;9.30;1.00;;;;;;5198041;28;20041;-31
2023/12/24 04:54:57;;;;;;;0.70;0.70;;;9.30;1.00;;;;;;5219990;28;20228;-31
2023/12/24 04:57:30;;;;;;;0.68;0.68;;;9.30;1.00;;;;;;5209122;28;20332;-31
2023/12/24 05:00:05;;;;;;;1.08;0.98;;;9.30;1.00;;;;;;5194843;28;20037;-31
2023/12/24 05:02:39;;;;;;;0.80;0.80;;;9.30;1.00;;;;;;5202079;28;20041;-31
2023/12/24 05:05:10;;;;;;;0.80;0.80;;;9.30;1.00;;;;;;5196674;28;20040;-33
2023/12/24 05:07:42;;;;;;;0.63;0.63;;;9.30;1.00;;;;;;5178403;28;20036;-32
2023/12/24 05:10:17;;;;;;;0.60;0.60;;;9.30;1.00;;;;;;5176709;28;20040;-31
2023/12/24 05:12:49;;;;;;;0.68;0.50;;;9.20;1.00;;;;;;5210163;28;20029;-31
2023/12/24 05:15:26;;;;;;;0.65;0.65;;;9.20;1.00;;;;;;5162947;28;20033;-32
2023/12/24 05:18:00;;;;;;;1.08;0.80;;;9.10;1.00;;;;;;5184908;28;20033;-31
2023/12/24 05:20:31;;;;;;;0.70;0.70;;;9.20;1.00;;;;;;5180978;28;20060;-32
2023/12/24 05:23:05;;;;;;;0.98;0.98;;;9.20;1.00;;;;;;5205810;28;20833;-32
2023/12/24 05:25:39;;;;;;;2.72;0.75;;;9.10;1.00;;;;;;5215374;28;20025;-32
2023/12/24 05:28:17;;;;;;;0.77;0.77;;;9.10;1.00;;;;;;5210735;28;20036;-32
2023/12/24 05:30:50;;;;;;;0.73;0.73;;;9.00;1.00;;;;;;5211860;28;20309;-31
2023/12/24 05:33:24;;;;;;;0.60;0.60;;;9.10;1.00;;;;;;5195511;28;20034;-31
2023/12/24 05:36:02;;;;;;;0.50;0.50;;;9.10;1.00;;;;;;5211557;28;20025;-31
2023/12/24 05:38:40;;;;;;;0.40;0.40;;;9.10;1.00;;;;;;5204379;28;20029;-37
2023/12/24 05:41:15;;;;;;;0.60;0.60;;;9.00;1.00;;;;;;5197140;28;20029;-31
2023/12/24 05:43:47;;;;;;;0.77;0.77;;;8.90;1.00;;;;;;5218227;28;20040;-31
2023/12/24 05:46:20;;;;;;;0.80;0.80;;;9.00;1.00;;;;;;5217161;28;20029;-31
2023/12/24 05:48:52;;;;;;;0.60;0.60;;;9.00;1.00;;;;;;5218428;28;20029;-31
2023/12/24 05:51:24;;;;;;;0.60;0.60;;;8.90;1.00;;;;;;5214763;28;20033;-33
2023/12/24 05:53:57;;;;;;;2.38;0.70;;;9.00;1.00;;;;;;5219565;28;20286;-31
2023/12/24 05:56:29;;;;;;;0.52;0.52;;;9.00;1.00;;;;;;5216063;28;20309;-31
2023/12/24 05:59:01;;;;;;;0.50;0.50;;;8.90;1.00;;;;;;5217576;28;20373;-31
2023/12/24 06:01:34;;;;;;;0.68;0.68;;;9.00;1.00;;;;;;5189168;28;20044;-31
2023/12/24 06:04:08;;;;;;;0.82;0.82;;;8.90;1.00;;;;;;5163211;28;20036;-31
2023/12/24 06:06:41;;;;;;;0.80;0.80;;;8.90;1.00;;;;;;5201065;28;20302;-31
2023/12/24 06:09:16;;;;;;;1.15;1.15;;;8.90;1.00;;;;;;5199614;28;20043;-31
2023/12/24 06:11:48;;;;;;;0.40;0.40;;;9.00;1.00;;;;;;5208167;28;20025;-32
2023/12/24 06:14:22;;;;;;;1.75;0.82;;;8.90;1.00;;;;;;5182046;28;20379;-31
2023/12/24 06:16:59;;;;;;;1.40;0.88;;;8.90;1.00;;;;;;5184681;28;20052;-31
2023/12/24 06:19:30;;;;;;;0.60;0.60;;;9.00;1.00;;;;;;5215978;28;20025;-31
2023/12/24 06:22:01;;;;;;;0.40;0.40;;;9.00;1.00;;;;;;5184163;28;21708;-32
2023/12/24 06:24:35;;;;;;;1.15;0.63;;;9.10;1.00;;;;;;5209150;28;20349;-32
2023/12/24 06:27:08;;;;;;;0.60;0.60;;;9.10;1.00;;;;;;5204226;28;20041;-31
2023/12/24 06:29:44;;;;;;;1.58;0.90;;;9.20;1.00;;;;;;5216493;28;20044;-32
2023/12/24 06:32:15;;;;;;;0.50;0.50;;;9.20;1.00;;;;;;5202759;28;20333;-32
2023/12/24 06:34:46;;;;;;;1.20;1.10;;;9.20;1.00;;;;;;5206612;28;20035;-32
2023/12/24 06:37:23;;;;;;;5.78;0.80;;;9.20;1.00;;;;;;5223741;28;20359;-37
2023/12/24 06:39:54;;;;;;;0.60;0.60;;;9.20;1.00;;;;;;5209120;28;20356;-31
2023/12/24 06:42:28;;;;;;;0.80;0.80;;;9.20;1.00;;;;;;5190376;28;20281;-31
2023/12/24 06:44:59;;;;;;;0.70;0.70;;;9.30;1.00;;;;;;5191896;28;20041;-31
2023/12/24 06:47:35;;;;;;;0.70;0.70;;;9.20;1.00;;;;;;5182864;28;20044;-31
2023/12/24 06:50:07;;;;;;;0.75;0.75;;;9.20;1.00;;;;;;5178878;28;20048;-30
2023/12/24 06:52:44;;;;;;;0.47;0.47;;;9.40;1.00;;;;;;5209034;28;20041;-32
2023/12/24 06:55:15;;;;;;;0.70;0.70;;;9.30;1.00;;;;;;5204645;28;20329;-32
2023/12/24 06:57:47;;;;;;;0.80;0.80;;;9.40;1.00;;;;;;5215167;28;20035;-33
2023/12/24 07:00:21;;;;;;;0.82;0.68;;;9.40;1.00;;;;;;5182089;28;20213;-32
2023/12/24 07:02:55;;;;;;;0.80;0.80;;;9.40;1.00;;;;;;5203388;28;20214;-33
2023/12/24 07:05:28;;;;;;;0.50;0.50;;;9.50;1.00;;;;;;5207119;28;20250;-32
2023/12/24 07:08:00;;;;;;;0.73;0.73;;;9.50;1.00;;;;;;5224458;28;20037;-33
2023/12/24 07:10:31;;;;;;;0.65;0.65;;;9.40;1.00;;;;;;5194899;28;20325;-33
2023/12/24 07:13:03;;;;;;;0.60;0.60;;;9.40;1.00;;;;;;5181992;28;20064;-33
2023/12/24 07:15:48;;;;;;;0.70;0.70;;;9.40;1.00;;;;;;5182969;28;20041;-32
2023/12/24 07:18:19;;;;;;;0.50;0.50;;;9.40;1.00;;;;;;5218568;28;20028;-31
2023/12/24 07:20:50;;;;;;;0.90;0.90;;;9.50;1.00;;;;;;5221790;28;20305;-31
2023/12/24 07:23:22;;;;;;;0.63;0.63;;;9.50;1.00;;;;;;5218953;28;20037;-32
2023/12/24 07:25:55;;;;;;;0.68;0.68;;;9.60;1.00;;;;;;5199478;28;20043;-32
2023/12/24 07:28:27;;;;;;;0.87;0.80;;;9.50;1.00;;;;;;5221350;28;20232;-32
2023/12/24 07:31:02;;;;;;;0.60;0.60;;;9.50;1.00;;;;;;5214921;28;20253;-32
2023/12/24 07:33:36;;;;;;;0.60;0.60;;;9.50;1.00;;;;;;5228373;28;20036;-32
2023/12/24 07:36:12;;;;;;;0.67;0.67;;;9.50;1.00;;;;;;5212456;28;20033;-33
2023/12/24 07:38:44;;;;;;;0.80;0.80;;;9.50;99.90;;;;;;5198968;28;20021;-31
2023/12/24 07:41:18;;;;;;;0.52;0.52;;;9.60;1.00;;;;;;5222754;28;20694;-31
2023/12/24 07:43:58;;;;;;;0.70;0.70;;;9.60;1.00;;;;;;5222364;28;20336;-31
2023/12/24 07:46:30;;;;;;;0.90;0.90;;;9.60;1.00;;;;;;5193444;28;20324;-33
2023/12/24 07:49:01;;;;;;;0.73;0.73;;;9.70;99.90;;;;;;5210288;28;20028;-31
2023/12/24 07:51:34;;;;;;;1.25;0.80;;;9.80;99.90;;;;;;5208259;28;20043;-33
2023/12/24 07:54:11;;;;;;;2.38;0.98;;;9.80;99.90;;;;;;5210157;28;20405;-32
2023/12/24 07:56:45;;;;;;;0.80;0.80;;;9.80;99.90;;;;;;5205105;28;20269;-31
2023/12/24 07:59:16;;;;;;;0.70;0.70;;;9.90;99.90;;;;;;5185760;28;20033;-31
2023/12/24 08:01:47;;;;;;;1.10;0.80;;;9.90;99.90;;;;;;5155060;28;20044;-33
2023/12/24 08:04:18;;;;;;;0.60;0.60;;;9.90;99.90;;;;;;5160366;28;20427;-33
2023/12/24 08:06:54;;;;;;;0.95;0.90;;;10.00;99.90;;;;;;5182667;28;20207;-32
2023/12/24 08:09:28;;;;;;;0.82;0.73;;;9.90;99.90;;;;;;5194437;28;20033;-32
2023/12/24 08:15:26;;;;;;;0.60;0.60;;;9.90;99.90;;;;;;5219510;28;20029;-32
2023/12/24 08:18:00;;;;;;;0.85;0.85;;;10.00;99.90;;;;;;5198841;28;20024;-32
2023/12/24 08:20:35;;;;;;;0.95;0.95;;;10.00;99.90;;;;;;5218343;28;20045;-32
2023/12/24 08:23:11;;;;;;;0.98;0.98;;;10.10;99.90;;;;;;5225956;28;20035;-32
2023/12/24 08:25:42;;;;;;;1.05;0.80;;;10.10;99.90;;;;;;5221884;28;20628;-31
2023/12/24 08:28:16;;;;;;;0.63;0.63;;;10.10;99.90;;;;;;5214078;28;20040;-30
2023/12/24 08:30:49;;;;;;;1.08;0.98;;;10.10;99.90;;;;;;5213453;28;20058;-32
2023/12/24 08:33:21;;;;;;;0.80;0.80;;;10.10;99.90;;;;;;5231120;28;20040;-32
2023/12/24 08:35:55;;;;;;;0.70;0.70;;;10.10;99.90;;;;;;5225428;28;20071;-33
2023/12/24 08:38:32;;;;;;;0.90;0.90;;;10.10;99.90;;;;;;5205002;28;20037;-33
2023/12/24 08:41:03;;;;;;;0.82;0.82;;;10.10;99.90;;;;;;5224610;28;20331;-32
2023/12/24 08:43:34;;;;;;;0.60;0.60;;;10.20;99.90;;;;;;5228687;28;20036;-37
2023/12/24 08:46:08;;;;;;;0.73;0.73;;;10.20;99.90;;;;;;5206941;28;21356;-31
2023/12/24 08:48:44;;;;;;;0.90;0.90;;;10.20;99.90;;;;;;5206952;28;20033;-32
2023/12/24 08:51:18;;;;;;;1.30;1.20;;;10.30;99.90;;;;;;5227401;28;20044;-33
2023/12/24 08:53:52;;;;;;;0.57;0.57;;;10.30;99.90;;;;;;5226391;28;20040;-33
2023/12/24 08:56:23;;;;;;;0.90;0.90;;;10.30;99.90;;;;;;5227561;28;20376;-32
2023/12/24 08:58:56;;;;;;;0.98;0.90;;;10.30;99.90;;;;;;5228634;28;20198;-31
2023/12/24 09:01:30;;;;;;;0.70;0.70;;;10.30;99.90;;;;;;5205863;28;20222;-33
2023/12/24 09:04:05;;;;;;;0.95;0.95;;;10.30;99.90;;;;;;5237162;28;20024;-33
2023/12/24 09:06:39;;;;;;;0.90;0.90;;;10.40;99.90;;;;;;5220173;28;20037;-33
2023/12/24 09:09:12;;;;;;;0.90;0.90;;;10.40;99.90;;;;;;5219151;28;20021;-32
2023/12/24 09:11:47;;;;;;;0.80;0.80;;;10.40;99.90;;;;;;5219295;28;20032;-32
2023/12/24 09:14:21;;;;;;;1.42;0.73;;;10.40;99.90;;;;;;5219587;28;20040;-32
2023/12/24 09:16:54;;;;;;;0.75;0.75;;;10.30;99.90;;;;;;5190940;28;20031;-32
2023/12/24 09:19:28;;;;;;;0.70;0.70;;;10.30;99.90;;;;;;5218309;28;20392;-33
2023/12/24 09:22:02;;;;;;;0.93;0.93;;;10.30;99.90;;;;;;5217806;28;20036;-31
2023/12/24 09:24:34;;;;;;;0.60;0.60;;;10.40;99.90;;;;;;5216715;28;20035;-30
2023/12/24 09:27:05;;;;;;;0.80;0.80;;;10.50;99.90;;;;;;5203384;28;20424;-31
2023/12/24 09:29:36;;;;;;;0.85;0.85;;;10.60;99.90;;;;;;5205161;28;20052;-31
2023/12/24 09:32:09;;;;;;;1.00;1.00;;;10.60;99.90;;;;;;5198815;28;20055;-31
2023/12/24 09:34:41;;;;;;;1.10;1.10;;;10.70;99.90;;;;;;5231832;28;20035;-33
2023/12/24 09:37:26;;;;;;;0.90;0.90;;;10.60;99.90;;;;;;5199162;28;20032;-31
2023/12/24 09:39:58;;;;;;;0.88;0.80;;;10.70;99.90;;;;;;5196838;28;20036;-31
2023/12/24 09:42:34;;;;;;;0.70;0.70;;;10.70;99.90;;;;;;5196715;28;20037;-34
2023/12/24 09:45:06;;;;;;;0.90;0.90;;;10.70;99.90;;;;;;5189171;28;20044;-31
2023/12/24 09:47:40;;;;;;;1.40;1.08;;;10.70;99.90;;;;;;5227662;28;20039;-31
2023/12/24 09:50:12;;;;;;;1.00;1.00;;;10.70;99.90;;;;;;5228034;28;20047;-31
2023/12/24 09:52:45;;;;;;;1.20;1.10;;;10.70;99.90;;;;;;5207442;28;20307;-31
2023/12/24 09:55:24;;;;;;;0.80;0.80;;;10.80;99.90;;;;;;5171092;28;20033;-31
2023/12/24 09:57:57;;;;;;;0.75;0.75;;;10.80;99.90;;;;;;5216766;28;20029;-31
2023/12/24 10:00:28;;;;;;;0.95;0.80;;;10.80;99.90;;;;;;5214269;28;20434;-32
2023/12/24 10:03:05;;;;;;;0.93;0.93;;;10.80;99.90;;;;;;5194168;28;20512;-32
2023/12/24 10:05:59;;;;;;;1.90;1.00;;;10.80;99.90;;;;;;5197925;28;20047;-31
2023/12/24 10:08:33;;;;;;;0.90;0.90;;;10.70;99.90;;;;;;5198988;28;20335;-33
2023/12/24 10:11:15;;;;;;;1.00;1.00;;;10.70;99.90;;;;;;5209965;28;20039;-32
2023/12/24 10:13:56;;;;;;;0.70;0.70;;;11.20;99.90;;;;;;5210724;28;20162;-32
2023/12/24 10:16:28;;;;;;;0.80;0.73;;;11.10;99.90;;;;;;5193232;28;20309;-32
2023/12/24 10:19:01;;;;;;;0.73;0.73;;;10.90;99.90;;;;;;5198276;28;20225;-32
2023/12/24 10:21:32;;;;;;;8.57;4.13;;;10.90;99.90;;;;;;5205904;28;20045;-32
2023/12/24 10:24:08;;;;;;;1.48;1.38;;;11.00;99.90;;;;;;5214160;28;20348;-35
2023/12/24 10:26:39;;;;;;;0.80;0.80;;;11.00;99.90;;;;;;5231462;28;20041;-32
2023/12/24 10:29:23;;;;;;;0.70;0.70;;;11.10;99.90;;;;;;5213897;28;20037;-32
2023/12/24 10:31:57;;;;;;;0.77;0.77;;;11.30;99.90;;;;;;5193804;28;20037;-32
2023/12/24 10:34:30;;;;;;;0.85;0.85;;;11.20;99.90;;;;;;5193742;28;20037;-31
2023/12/24 10:37:18;;;;;;;0.82;0.82;;;11.00;99.90;;;;;;5212140;28;20202;-31
2023/12/24 10:39:50;;;;;;;2.08;1.48;;;10.90;99.90;;;;;;5199644;28;20013;-32
2023/12/24 10:42:24;;;;;;;0.68;0.63;;;11.10;99.90;;;;;;5218845;28;20035;-31
2023/12/24 10:44:57;;;;;;;1.30;0.90;;;11.20;99.90;;;;;;5201046;28;20237;-31
2023/12/24 10:47:31;;;;;;;0.90;0.90;;;11.10;99.90;;;;;;5208656;28;20033;-32
2023/12/24 10:50:03;;;;;;;0.80;0.80;;;11.10;99.90;;;;;;5189484;28;20233;-33
2023/12/24 10:52:35;;;;;;;0.50;0.50;;;11.00;99.90;;;;;;5195815;28;20611;-33
2023/12/24 10:55:10;;;;;;;0.70;0.70;;;11.00;99.90;;;;;;5228300;28;20028;-31
2023/12/24 10:57:48;;;;;;;0.47;0.47;;;11.00;99.90;;;;;;5202899;28;20095;-37
2023/12/24 11:00:20;;;;;;;0.65;0.65;;;11.00;99.90;;;;;;5174867;28;20221;-31
2023/12/24 11:02:54;;;;;;;1.02;0.95;;;11.00;99.90;;;;;;5183591;28;20029;-31
2023/12/24 11:05:40;;;;;;;0.75;0.75;;;11.10;99.90;;;;;;5214823;28;20328;-31
2023/12/24 11:08:23;;;;;;;0.70;0.70;;;11.10;99.90;;;;;;5234072;28;20032;-31
2023/12/24 11:11:03;;;;;;;0.93;0.80;;;11.20;99.90;;;;;;5232918;28;20033;-31
2023/12/24 11:13:36;;;;;;;0.82;0.82;;;11.50;99.90;;;;;;5226367;28;20083;-32
2023/12/24 11:16:10;;;;;;;0.82;0.82;;;11.50;99.90;;;;;;5229506;28;20219;-32
2023/12/24 11:18:48;;;;;;;0.80;0.80;;;11.40;99.90;;;;;;5234601;28;20312;-33
2023/12/24 11:21:20;;;;;;;0.57;0.57;;;11.20;99.90;;;;;;5213067;28;20033;-31
2023/12/24 11:24:12;;;;;;;0.63;0.63;;;11.20;99.90;;;;;;5222005;28;20048;-32
2023/12/24 11:26:53;;;;;;;0.63;0.63;;;11.20;99.90;;;;;;5218084;28;20039;-32
2023/12/24 11:29:47;;;;;;;0.68;0.68;;;11.10;99.90;;;;;;5232610;28;20323;-32
2023/12/24 11:32:24;;;;;;;0.63;0.60;;;11.10;99.90;;;;;;5206355;28;20273;-31
2023/12/24 11:34:59;;;;;;;0.63;0.63;;;11.10;99.90;;;;;;5208456;28;20028;-31
2023/12/24 11:37:35;;;;;;;0.50;0.50;;;11.10;99.90;;;;;;5183376;28;20056;-31
2023/12/24 11:40:18;;;;;;;1.33;0.60;;;11.10;99.90;;;;;;5210455;28;20024;-33
2023/12/24 11:42:51;;;;;;;0.60;0.60;;;11.10;99.90;;;;;;5199001;28;20290;-33
2023/12/24 11:45:29;;;;;;;0.52;0.52;;;11.10;99.90;;;;;;5217549;28;20028;-33
2023/12/24 11:48:02;;;;;;;0.55;0.55;;;11.10;99.90;;;;;;5228311;28;20028;-35
2023/12/24 11:50:34;;;;;;;0.70;0.70;;;11.00;99.90;;;;;;5213421;28;20036;-32
2023/12/24 11:53:09;;;;;;;2.65;0.65;;;10.90;99.90;;;;;;5229741;28;20028;-32
2023/12/24 11:55:44;;;;;;;0.80;0.80;;;11.00;99.90;;;;;;5209016;28;20225;-32
2023/12/24 11:58:16;;;;;;;0.75;0.75;;;10.90;99.90;;;;;;5214253;28;20040;-31
2023/12/24 12:00:47;;;;;;;0.80;0.80;;;10.90;99.90;;;;;;5230859;28;20020;-31
2023/12/24 12:03:21;;;;;;;0.60;0.60;;;10.90;99.90;;;;;;5222481;28;20217;-31
2023/12/24 12:06:01;;;;;;;0.77;0.77;;;10.80;99.90;;;;;;5201483;28;20043;-33
2023/12/24 12:08:34;;;;;;;0.70;0.70;;;10.70;99.90;;;;;;5210416;28;20033;-32
2023/12/24 12:11:05;;;;;;;0.80;0.80;;;10.60;99.90;;;;;;5196698;28;20024;-32
2023/12/24 12:13:36;;;;;;;0.60;0.60;;;10.50;99.90;;;;;;5206220;28;20039;-32
2023/12/24 12:16:07;;;;;;;0.90;0.90;;;10.60;99.90;;;;;;5217330;28;20222;-31
2023/12/24 12:18:39;;;;;;;0.60;0.60;;;10.50;99.90;;;;;;5197069;28;20033;-33
2023/12/24 12:21:10;;;;;;;0.68;0.60;;;10.40;99.90;;;;;;5199457;28;20040;-32
2023/12/24 12:23:42;;;;;;;0.80;0.80;;;10.40;99.90;;;;;;5185547;28;20556;-31
2023/12/24 12:26:13;;;;;;;0.63;0.63;;;10.20;99.90;;;;;;5183361;28;20095;-32
2023/12/24 12:28:47;;;;;;;0.60;0.60;;;10.10;99.90;;;;;;5188132;28;20294;-32
2023/12/24 12:31:21;;;;;;;1.27;1.13;;;9.90;99.90;;;;;;5186314;28;20040;-30
2023/12/24 12:33:52;;;;;;;0.70;0.70;;;9.70;1.00;;;;;;5223279;28;20047;-32
2023/12/24 12:36:23;;;;;;;0.70;0.70;;;9.70;1.00;;;;;;5227762;28;20313;-31
2023/12/24 12:38:55;;;;;;;0.68;0.60;;;9.70;1.00;;;;;;5197412;28;20252;-32
2023/12/24 12:41:26;;;;;;;0.60;0.50;;;9.60;1.00;;;;;;5200351;28;20201;-32
2023/12/24 12:44:00;;;;;;;0.60;0.60;;;9.50;1.00;;;;;;5189156;28;20503;-32
2023/12/24 12:46:33;;;;;;;0.60;0.60;;;9.40;1.00;;;;;;5205902;28;20189;-32
2023/12/24 12:49:04;;;;;;;0.87;0.87;;;9.40;1.00;;;;;;5190908;28;20306;-32
2023/12/24 12:51:39;;;;;;;0.70;0.70;;;9.30;1.00;;;;;;5181218;28;20488;-32
2023/12/24 12:54:14;;;;;;;0.60;0.60;;;9.30;1.00;;;;;;5184066;28;20025;-33
2023/12/24 12:56:48;;;;;;;0.70;0.70;;;9.20;71.70;;;;;;5192047;28;20222;-32
2023/12/24 12:59:25;;;;;;;0.63;0.63;;;9.20;99.90;;;;;;5221151;28;20031;-32
2023/12/24 13:01:58;;;;;;;0.82;0.70;;;9.30;99.90;;;;;;5219739;28;20036;-31
2023/12/24 13:04:34;;;;;;;0.52;0.52;;;9.20;99.90;;;;;;5213181;28;20028;-33
2023/12/24 13:07:08;;;;;;;0.52;0.52;;;9.20;99.90;;;;;;5192721;28;20040;-33
2023/12/24 13:09:49;;;;;;;;;;;9.00;99.90;;;;;;5197805;28;20045;-31
2023/12/24 13:12:20;;;;;;;0.70;0.70;;;9.00;1.00;;;;;;5212015;28;19908;-33
2023/12/24 13:14:57;;;;;;;0.60;0.60;;;8.80;1.00;;;;;;5212813;28;20064;-31
2023/12/24 13:17:31;;;;;;;1.20;0.68;;;8.70;99.90;;;;;;5200111;28;20021;-31
2023/12/24 13:20:03;;;;;;;0.80;0.80;;;8.70;99.90;;;;;;5173501;28;20325;-31
2023/12/24 13:22:34;;;;;;;0.80;0.65;;;8.70;99.90;;;;;;5208659;28;20237;-33
2023/12/24 13:25:08;;;;;;;0.50;0.50;;;8.80;1.00;;;;;;5216268;28;20036;-31
2023/12/24 13:27:39;;;;;;;0.63;0.63;;;8.90;1.00;;;;;;5198233;28;20041;-31
2023/12/24 13:30:13;;;;;;;0.70;0.70;;;9.00;99.90;;;;;;5182567;28;20037;-30
2023/12/24 13:32:44;;;;;;;0.80;0.80;;;9.00;99.90;;;;;;5185181;28;20043;-30
2023/12/24 13:35:18;;;;;;;0.73;0.70;;;9.10;99.90;;;;;;5214939;28;20036;-31
2023/12/24 13:37:52;;;;;;;0.60;0.60;;;9.10;1.00;;;;;;5194395;28;20436;-31